Elsie, Michigan
Current Conditions -  °F | °C
As of 9:34 PM on Tuesday 21 Oct 2014 (Local Time) from KRNP Reporting Station
Clear Clear  
Wind Chill: 37°   Ceiling: Unl
Heat Index: 40°   Visibility: 10mi
Dew Point: 35°   Wind: 5mph
Humidity: 80%   Direction: 30°NNE
Pressure: 30.24"   Gusts: NA
Location:  43.09°N, 84.39°W
Report Text: KRNP 220134Z AUTO 03004KT 10SM CLR 05/02 A3024 RMK AO2 T00460015
Loading
Personal Weather Stations






























Interactive Weather Map New forecast layout! Learn more

10-Day Weather Forecast

Advertisements
Track Severe Weather on mobile